Main page
METAR-TAF:

METAR-TAF

Airports :

Helsinki Airport

Helsinki, Finland

latitude: 60-19N, longitude: 024-58E, elevation: 51 m

Current weather observation

The report was made 32 minutes ago, at 04:20 UTC
Wind 5 kt from the Northwest
Temperature 12°C
Humidity 71%
Pressure 1030 hPa
Visibility 10 km or more
no clouds below 1500 m and no cumulonimbus

METAR: EFHK 260420Z 32005KT CAVOK 12/07 Q1030 NOSIG

Time: 07:52 (04:52 UTC)

Forecast

The report was made 2 hours and 25 minutes ago, at 02:27 UTC
Forecast valid from 26 at 03 UTC to 27 at 03 UTC
Wind 5 kt from the Northwest
Visibility 10 km or more
no clouds below 1500 m and no cumulonimbus

TAF: EFHK 260227Z 2603/2703 31005KT CAVOK

Weather observations and forecasts of more than 4000 airports (METAR and TAF reports).

The available stations are represented by yellow and red dots on the map.

Hover mouse over dot to see the name of the station.

Then click to see weather observations and forecasts.

To change the map : click on the green buttons with a black cross to zoom in, on the green button with a dash to zoom out, or on the green arrows for adjacent maps.


METAR-TAF: